createdAt,value
2019-05-05T00:00:14.358Z,98941.50
2019-05-05T00:04:45.527Z,98948.08
2019-05-05T00:08:50.058Z,98953.34
2019-05-05T00:13:15.019Z,98956.36
2019-05-05T00:17:21.411Z,98960.72
2019-05-05T00:21:25.676Z,98972.96
2019-05-05T00:25:29.937Z,98981.67
2019-05-05T00:29:34.742Z,98986.05
2019-05-05T00:33:39.187Z,98989.95
2019-05-05T00:37:45.075Z,98993.02
2019-05-05T00:41:49.370Z,98997.38
2019-05-05T00:45:56.287Z,99004.34
2019-05-05T00:50:01.295Z,99011.67
2019-05-05T00:54:05.593Z,99015.55
2019-05-05T00:58:09.852Z,99026.41
2019-05-05T01:02:25.044Z,99036.41
2019-05-05T01:06:31.009Z,99032.83
2019-05-05T01:10:35.941Z,99033.22
2019-05-05T01:14:40.176Z,99038.87
2019-05-05T01:18:45.107Z,99048.44
2019-05-05T01:22:49.395Z,99045.77
2019-05-05T01:26:55.082Z,99050.54
2019-05-05T01:31:02.899Z,99054.39
2019-05-05T01:35:07.709Z,99061.78
2019-05-05T01:39:40.684Z,99049.98
2019-05-05T01:43:45.249Z,99058.67
2019-05-05T01:47:49.478Z,99055.21
2019-05-05T01:51:55.239Z,99063.02
2019-05-05T01:56:00.479Z,99063.84
2019-05-05T02:00:05.370Z,99069.03
2019-05-05T02:04:09.728Z,99056.84
2019-05-05T02:08:15.299Z,99058.58
2019-05-05T02:12:19.772Z,99063.34
2019-05-05T02:16:25.382Z,99062.91
2019-05-05T02:20:45.104Z,99078.11
2019-05-05T02:24:49.459Z,99073.28
2019-05-05T02:29:04.930Z,99075.42
2019-05-05T02:33:11.806Z,99077.63
2019-05-05T02:37:16.265Z,99082.88
2019-05-05T02:41:21.539Z,99083.72
2019-05-05T02:45:39.115Z,99089.39
2019-05-05T02:49:45.581Z,99094.61
2019-05-05T02:53:53.721Z,99092.83
2019-05-05T02:57:58.725Z,99100.63
2019-05-05T03:02:10.182Z,99097.97
2019-05-05T03:06:14.575Z,99108.38
2019-05-05T03:10:18.860Z,99111.00
2019-05-05T03:14:24.221Z,99118.02
2019-05-05T03:18:28.761Z,99125.36
2019-05-05T03:22:34.110Z,99133.20
2019-05-05T03:26:38.683Z,99143.65
2019-05-05T03:30:45.436Z,99139.30
2019-05-05T03:34:49.807Z,99143.69
2019-05-05T03:38:55.643Z,99149.75
2019-05-05T03:43:05.100Z,99155.37
2019-05-05T03:47:09.825Z,99163.64
2019-05-05T03:51:18.889Z,99163.66
2019-05-05T03:55:20.638Z,99165.83
2019-05-05T03:59:24.938Z,99176.73
2019-05-05T04:03:29.585Z,99174.11
2019-05-05T04:07:34.078Z,99194.14
2019-05-05T04:11:38.346Z,99187.63
2019-05-05T04:15:44.623Z,99196.38
2019-05-05T04:19:51.486Z,99193.75
2019-05-05T04:23:55.673Z,99199.39
2019-05-05T04:27:59.920Z,99209.80
2019-05-05T04:32:04.739Z,99206.18
2019-05-05T04:36:09.048Z,99209.20
2019-05-05T04:40:14.785Z,99223.64
2019-05-05T04:44:19.306Z,99227.19
2019-05-05T04:48:45.300Z,99243.78
2019-05-05T04:52:50.752Z,99243.36
2019-05-05T04:56:55.199Z,99254.07
2019-05-05T05:00:59.447Z,99256.52
2019-05-05T05:05:14.491Z,99265.11
2019-05-05T05:09:19.141Z,99280.68
2019-05-05T05:13:24.437Z,99287.62
2019-05-05T05:17:36.820Z,99288.44
2019-05-05T05:22:02.355Z,99296.70
2019-05-05T05:26:07.567Z,99301.08
2019-05-05T05:30:13.718Z,99306.30
2019-05-05T05:34:17.968Z,99316.30
2019-05-05T05:38:24.121Z,99312.36
2019-05-05T05:42:28.185Z,99309.67
2019-05-05T05:46:51.917Z,99308.83
2019-05-05T05:51:08.519Z,99318.38
2019-05-05T05:55:14.573Z,99328.38
2019-05-05T05:59:18.725Z,99337.08
2019-05-05T06:03:24.513Z,99332.73
2019-05-05T06:07:28.972Z,99338.83
2019-05-05T06:11:34.578Z,99342.71
2019-05-05T06:15:38.781Z,99354.43
2019-05-05T06:19:44.627Z,99357.91
2019-05-05T06:23:49.095Z,99355.33
2019-05-05T06:27:54.288Z,99354.89
2019-05-05T06:31:58.734Z,99368.31
2019-05-05T06:36:05.129Z,99379.69
2019-05-05T06:40:10.747Z,99380.47
2019-05-05T06:44:33.969Z,99383.08
2019-05-05T06:48:38.193Z,99386.16
2019-05-05T06:52:45.113Z,99387.05
2019-05-05T06:56:48.517Z,99394.05
2019-05-05T07:00:54.314Z,99396.66
2019-05-05T07:04:58.682Z,99394.42
2019-05-05T07:09:05.338Z,99399.30
2019-05-05T07:13:09.282Z,99400.31
2019-05-05T07:17:14.069Z,99407.77
2019-05-05T07:21:18.463Z,99408.64
2019-05-05T07:25:24.236Z,99400.84
2019-05-05T07:29:28.701Z,99410.47
2019-05-05T07:33:34.632Z,99410.09
2019-05-05T07:37:39.529Z,99409.57
2019-05-05T07:41:44.750Z,99415.34
2019-05-05T07:45:49.198Z,99402.81
2019-05-05T07:49:53.655Z,99413.77
2019-05-05T07:53:58.001Z,99419.46
2019-05-05T07:58:04.195Z,99427.38
2019-05-05T08:02:08.347Z,99419.57
2019-05-05T08:06:14.482Z,99422.65
2019-05-05T08:10:18.691Z,99431.00
2019-05-05T08:14:24.577Z,99427.98
2019-05-05T08:18:47.984Z,99434.48
2019-05-05T08:22:53.646Z,99438.43
2019-05-05T08:27:09.079Z,99438.16
2019-05-05T08:31:21.328Z,99422.59
2019-05-05T08:35:25.678Z,99438.27
2019-05-05T08:39:29.949Z,99443.59
2019-05-05T08:43:34.819Z,99449.69
2019-05-05T08:47:39.234Z,99446.70
2019-05-05T08:51:44.326Z,99451.13
2019-05-05T08:55:49.059Z,99447.67
2019-05-05T08:59:54.475Z,99451.57
2019-05-05T09:03:58.826Z,99450.64
2019-05-05T09:08:04.507Z,99454.08
2019-05-05T09:12:09.195Z,99449.77
2019-05-05T09:16:14.842Z,99450.70
2019-05-05T09:20:19.252Z,99450.75
2019-05-05T09:24:38.262Z,99448.59
2019-05-05T09:29:01.475Z,99448.69
2019-05-05T09:33:06.372Z,99456.12
2019-05-05T09:37:10.631Z,99454.00
2019-05-05T09:41:14.945Z,99448.38
2019-05-05T09:45:21.048Z,99452.33
2019-05-05T09:49:25.332Z,99459.71
2019-05-05T09:53:30.052Z,99462.30
2019-05-05T09:57:34.523Z,99464.02
2019-05-05T10:01:39.173Z,99466.61
2019-05-05T10:05:43.576Z,99472.69
2019-05-05T10:09:47.883Z,99485.32
2019-05-05T10:13:52.111Z,99474.92
2019-05-05T10:17:56.680Z,99476.60
2019-05-05T10:22:01.070Z,99477.84
2019-05-05T10:26:09.139Z,99480.42
2019-05-05T10:30:14.292Z,99480.84
2019-05-05T10:34:19.482Z,99485.63
2019-05-05T10:38:23.790Z,99484.40
2019-05-05T10:42:45.920Z,99471.78
2019-05-05T10:46:50.200Z,99482.24
2019-05-05T10:50:55.726Z,99493.11
2019-05-05T10:54:59.970Z,99494.34
2019-05-05T10:59:04.294Z,99490.42
2019-05-05T11:03:08.872Z,99484.81
2019-05-05T11:07:14.508Z,99487.88
2019-05-05T11:11:19.349Z,99489.19
2019-05-05T11:15:24.682Z,99481.30
2019-05-05T11:19:29.215Z,99481.76
2019-05-05T11:23:34.571Z,99483.12
2019-05-05T11:27:38.959Z,99484.04
2019-05-05T11:31:45.193Z,99484.94
2019-05-05T11:35:56.531Z,99496.75
2019-05-05T11:40:00.811Z,99509.78
2019-05-05T11:44:05.312Z,99513.56
2019-05-05T11:48:09.618Z,99509.62
2019-05-05T11:52:13.850Z,99514.36
2019-05-05T11:56:18.149Z,99515.20
2019-05-05T12:00:24.144Z,99515.15
2019-05-05T12:04:28.880Z,99508.23
2019-05-05T12:08:34.505Z,99510.92
2019-05-05T12:12:38.964Z,99524.87
2019-05-05T12:16:43.937Z,99538.34
2019-05-05T12:20:48.314Z,99537.47
2019-05-05T12:24:53.498Z,99528.30
2019-05-05T12:29:17.428Z,99529.63
2019-05-05T12:33:24.225Z,99522.31
2019-05-05T12:37:28.047Z,99526.34
2019-05-05T12:41:32.321Z,99525.52
2019-05-05T12:45:38.292Z,99525.11
2019-05-05T12:49:54.526Z,99526.09
2019-05-05T12:53:55.273Z,99523.06
2019-05-05T12:57:59.649Z,99526.57
2019-05-05T13:02:04.510Z,99526.59
2019-05-05T13:06:08.781Z,99530.93
2019-05-05T13:10:16.278Z,99534.39
2019-05-05T13:14:20.663Z,99535.72
2019-05-05T13:18:24.940Z,99540.95
2019-05-05T13:22:48.175Z,99540.48
2019-05-05T13:26:56.677Z,99544.42
2019-05-05T13:31:01.285Z,99542.67
2019-05-05T13:35:06.975Z,99543.48
2019-05-05T13:39:11.345Z,99540.49
2019-05-05T13:43:15.608Z,99538.28
2019-05-05T13:47:20.077Z,99544.39
2019-05-05T13:51:24.288Z,99544.00
2019-05-05T13:55:28.540Z,99545.31
2019-05-05T13:59:33.995Z,99553.19
2019-05-05T14:03:38.399Z,99555.80
2019-05-05T14:07:43.625Z,99554.03
2019-05-05T14:11:48.053Z,99561.82
2019-05-05T14:15:54.388Z,99560.00
2019-05-05T14:20:05.199Z,99554.72
2019-05-05T14:24:15.148Z,99561.09
2019-05-05T14:28:19.432Z,99555.38
2019-05-05T14:32:26.169Z,99554.91
2019-05-05T14:36:49.435Z,99562.31
2019-05-05T14:40:53.828Z,99569.75
2019-05-05T14:44:58.213Z,99554.97
2019-05-05T14:49:05.729Z,99553.71
2019-05-05T14:53:10.772Z,99556.35
2019-05-05T14:57:15.039Z,99550.74
2019-05-05T15:01:19.521Z,99553.30
2019-05-05T15:05:41.829Z,99549.44
2019-05-05T15:09:48.642Z,99552.08
2019-05-05T15:13:54.046Z,99549.52
2019-05-05T15:17:58.436Z,99551.28
2019-05-05T15:22:02.661Z,99557.33
2019-05-05T15:26:08.166Z,99557.36
2019-05-05T15:30:12.986Z,99550.41
2019-05-05T15:34:17.291Z,99565.29
2019-05-05T15:38:24.245Z,99562.70
2019-05-05T15:42:28.637Z,99558.37
2019-05-05T15:46:33.712Z,99554.41
2019-05-05T15:50:38.282Z,99563.55
2019-05-05T15:54:44.479Z,99558.78
2019-05-05T15:58:48.516Z,99560.08
2019-05-05T16:02:54.711Z,99565.36
2019-05-05T16:06:59.004Z,99561.27
2019-05-05T16:11:03.734Z,99563.92
2019-05-05T16:15:24.169Z,99568.75
2019-05-05T16:19:50.303Z,99570.88
2019-05-05T16:24:00.185Z,99577.84
2019-05-05T16:28:05.561Z,99579.91
2019-05-05T16:32:19.533Z,99588.52
2019-05-05T16:36:16.457Z,99580.59
2019-05-05T16:40:23.163Z,99578.42
2019-05-05T16:44:27.152Z,99576.20
2019-05-05T16:48:34.324Z,99581.36
2019-05-05T16:52:46.032Z,99584.41
2019-05-05T16:56:50.020Z,99586.59
2019-05-05T17:00:54.564Z,99581.41
2019-05-05T17:04:59.113Z,99584.44
2019-05-05T17:09:04.539Z,99583.09
2019-05-05T17:13:25.208Z,99589.70
2019-05-05T17:17:44.465Z,99602.72
2019-05-05T17:22:06.244Z,99604.00
2019-05-05T17:26:11.454Z,99604.43
2019-05-05T17:30:18.769Z,99602.66
2019-05-05T17:34:24.755Z,99595.57
2019-05-05T17:38:29.254Z,99599.06
2019-05-05T17:42:51.137Z,99607.31
2019-05-05T17:47:00.123Z,99611.64
2019-05-05T17:51:16.391Z,99621.63
2019-05-05T17:55:28.658Z,99629.48
2019-05-05T17:59:33.744Z,99624.16
2019-05-05T18:03:38.253Z,99623.28
2019-05-05T18:07:45.214Z,99627.98
2019-05-05T18:12:27.053Z,99636.61
2019-05-05T18:16:31.352Z,99642.20
2019-05-05T18:20:35.628Z,99647.38
2019-05-05T18:24:40.039Z,99646.47
2019-05-05T18:28:47.865Z,99651.63
2019-05-05T18:32:50.785Z,99660.74
2019-05-05T18:36:55.144Z,99673.84
2019-05-05T18:41:03.758Z,99668.19
2019-05-05T18:45:11.140Z,99674.28
2019-05-05T18:49:15.943Z,99678.50
2019-05-05T18:53:23.011Z,99682.39
2019-05-05T18:57:27.639Z,99686.74
2019-05-05T19:01:54.211Z,99691.06
2019-05-05T19:06:09.593Z,99698.77
2019-05-05T19:10:14.381Z,99696.55
2019-05-05T19:14:18.711Z,99703.52
2019-05-05T19:18:24.545Z,99707.88
2019-05-05T19:22:28.899Z,99711.79
2019-05-05T19:26:33.987Z,99702.58
2019-05-05T19:30:41.291Z,99704.35
2019-05-05T19:34:45.878Z,99698.33
2019-05-05T19:38:50.260Z,99690.92
2019-05-05T19:42:55.215Z,99695.31
2019-05-05T19:47:09.485Z,99690.56
2019-05-05T19:51:15.394Z,99702.28
2019-05-05T19:55:19.856Z,99699.70
2019-05-05T19:59:24.184Z,99690.13
2019-05-05T20:03:28.701Z,99697.53
2019-05-05T20:07:33.267Z,99700.20
2019-05-05T20:11:39.448Z,99715.05
2019-05-05T20:15:55.587Z,99712.03
2019-05-05T20:20:00.701Z,99703.33
2019-05-05T20:24:05.075Z,99701.18
2019-05-05T20:28:09.311Z,99707.28
2019-05-05T20:32:14.166Z,99713.34
2019-05-05T20:36:23.749Z,99699.84
2019-05-05T20:40:30.941Z,99695.89
2019-05-05T20:44:35.212Z,99688.42
2019-05-05T20:48:41.321Z,99692.77
2019-05-05T20:52:45.693Z,99695.38
2019-05-05T20:56:49.923Z,99686.30
2019-05-05T21:00:54.931Z,99681.92
2019-05-05T21:04:59.552Z,99687.08
2019-05-05T21:09:04.824Z,99687.95
2019-05-05T21:13:09.112Z,99685.37
2019-05-05T21:17:13.692Z,99680.17
2019-05-05T21:21:24.659Z,99677.59
2019-05-05T21:25:30.847Z,99679.23
2019-05-05T21:29:41.541Z,99669.66
2019-05-05T21:33:41.098Z,99666.17
2019-05-05T21:37:45.415Z,99659.17
2019-05-05T21:41:49.960Z,99653.05
2019-05-05T21:45:54.165Z,99661.75
2019-05-05T21:49:58.434Z,99665.23
2019-05-05T21:54:20.293Z,99656.05
2019-05-05T21:58:28.408Z,99653.52
2019-05-05T22:02:34.498Z,99641.32
2019-05-05T22:06:38.608Z,99659.17
2019-05-05T22:10:42.931Z,99662.19
2019-05-05T22:14:47.209Z,99665.27
2019-05-05T22:18:53.866Z,99655.25
2019-05-05T22:22:58.036Z,99662.66
2019-05-05T22:27:04.563Z,99669.59
2019-05-05T22:31:08.407Z,99665.67
2019-05-05T22:35:14.044Z,99667.81
2019-05-05T22:39:18.768Z,99652.61
2019-05-05T22:43:23.842Z,99651.30
2019-05-05T22:47:28.383Z,99654.81
2019-05-05T22:51:33.815Z,99651.37
2019-05-05T22:55:38.158Z,99652.27
2019-05-05T22:59:42.393Z,99641.02
2019-05-05T23:04:05.575Z,99647.11
2019-05-05T23:08:09.755Z,99656.63
2019-05-05T23:12:14.080Z,99658.80
2019-05-05T23:16:26.454Z,99663.56
2019-05-05T23:21:03.652Z,99654.78
2019-05-05T23:25:14.635Z,99654.81
2019-05-05T23:29:19.212Z,99663.93
2019-05-05T23:33:24.954Z,99663.45
2019-05-05T23:37:29.354Z,99658.16
2019-05-05T23:41:34.856Z,99648.15
2019-05-05T23:45:39.188Z,99661.58
2019-05-05T23:49:44.037Z,99660.70
2019-05-05T23:53:48.414Z,99657.66
2019-05-05T23:57:54.713Z,99659.37
